F.d. Vittorio Raiola — 3FJJ9 — position and weather

sailwx.info

Track history (hours):
 
Tides and Currents Weather Stations Pressure Air Temp Water Temp Dewpoint Dewpoint Depression Visibility Wind Speed Wind Dir Waves Ship Positions

F.d. Vittorio Raiola

Last reported at 2018-Jan-08 15:19 UTC. Time now 2018-Jan-19 21:26 UTC.
Position N 34°16' E 129°49'.
Warning: this ship's position is 11 days out of date.

; draft 11.9 m.

Type: Ship. MMSI: 356890000.

Date/timePositionNaut miles runAvg speedWind from/ knotsBaromVisibWave heightAir tempDewpointWater temp
2018-Jan-08 15:19N 34°16' E 129°49'410.0
2018-Jan-08 14:57N 34°19' E 129°52'510.0
2018-Jan-08 14:29N 34°22' E 129°57'510.2
2018-Jan-08 14:00N 34°25' E 130°01'510.0
2018-Jan-08 13:31N 34°28' E 130°06'510.6
2018-Jan-08 13:00N 34°32' E 130°11'510.5
2018-Jan-08 12:30N 34°35' E 130°16'910.9
2018-Jan-08 11:40N 34°41' E 130°24'1611.4
2018-Jan-08 10:16N 34°52' E 130°39'411.5
2018-Jan-08 09:53N 34°55' E 130°42'  
2018-Jan-06 05:13N 41°15' E 140°11'210.8
2018-Jan-06 05:00N 41°17' E 140°13'510.3
2018-Jan-06 04:30N 41°20' E 140°18'510.2
2018-Jan-06 04:00N 41°24' E 140°23'5 9.8
2018-Jan-06 03:31N 41°26' E 140°29'510.8
2018-Jan-06 03:00N 41°30' E 140°34'611.2
2018-Jan-06 02:31N 41°33' E 140°40'611.2
2018-Jan-06 02:00N 41°36' E 140°47'510.4
2018-Jan-06 01:30N 41°38' E 140°53'510.2
2018-Jan-06 01:00N 41°38' E 141°00'510.7
2018-Jan-06 00:31N 41°38' E 141°07'611.8
2018-Jan-06 00:00N 41°38' E 141°15'611.1
2018-Jan-05 23:31N 41°38' E 141°23'5 9.9
2018-Jan-05 23:00N 41°38' E 141°29'5 9.4
2018-Jan-05 22:30N 41°38' E 141°35'611.2
2018-Jan-05 21:59N 41°39' E 141°43'  
Track history (hours):
 
Tides and Currents Weather Stations Pressure Air Temp Water Temp Dewpoint Dewpoint Depression Visibility Wind Speed Wind Dir Waves Ship Positions

F.d. Vittorio Raiola

Last reported at 2018-Jan-08 15:19 UTC. Time now 2018-Jan-19 21:26 UTC.
Position N 34°16' E 129°49'.
Warning: this ship's position is 11 days out of date.

; draft 11.9 m.

Type: Ship. MMSI: 356890000.

Date/timePositionNaut miles runAvg speedWind from/ knotsBaromVisibWave heightAir tempDewpointWater temp
2018-Jan-08 15:19N 34°16' E 129°49'410.0
2018-Jan-08 14:57N 34°19' E 129°52'510.0
2018-Jan-08 14:29N 34°22' E 129°57'510.2
2018-Jan-08 14:00N 34°25' E 130°01'510.0
2018-Jan-08 13:31N 34°28' E 130°06'510.6
2018-Jan-08 13:00N 34°32' E 130°11'510.5
2018-Jan-08 12:30N 34°35' E 130°16'910.9
2018-Jan-08 11:40N 34°41' E 130°24'1611.4
2018-Jan-08 10:16N 34°52' E 130°39'411.5
2018-Jan-08 09:53N 34°55' E 130°42'  
2018-Jan-06 05:13N 41°15' E 140°11'210.8
2018-Jan-06 05:00N 41°17' E 140°13'510.3
2018-Jan-06 04:30N 41°20' E 140°18'510.2
2018-Jan-06 04:00N 41°24' E 140°23'5 9.8
2018-Jan-06 03:31N 41°26' E 140°29'510.8
2018-Jan-06 03:00N 41°30' E 140°34'611.2
2018-Jan-06 02:31N 41°33' E 140°40'611.2
2018-Jan-06 02:00N 41°36' E 140°47'510.4
2018-Jan-06 01:30N 41°38' E 140°53'510.2
2018-Jan-06 01:00N 41°38' E 141°00'510.7
2018-Jan-06 00:31N 41°38' E 141°07'611.8
2018-Jan-06 00:00N 41°38' E 141°15'611.1
2018-Jan-05 23:31N 41°38' E 141°23'5 9.9
2018-Jan-05 23:00N 41°38' E 141°29'5 9.4
2018-Jan-05 22:30N 41°38' E 141°35'611.2
2018-Jan-05 21:59N 41°39' E 141°43'  

Dump ship's entire track history